createdAt,value
2023-02-04T00:00:02.528Z,6.43
2023-02-04T00:02:30.222Z,6.20
2023-02-04T00:04:57.905Z,6.40
2023-02-04T00:07:25.553Z,6.83
2023-02-04T00:09:53.170Z,5.90
2023-02-04T00:12:22.166Z,5.63
2023-02-04T00:14:49.765Z,5.20
2023-02-04T00:17:17.435Z,5.23
2023-02-04T00:19:45.114Z,5.77
2023-02-04T00:22:12.818Z,5.80
2023-02-04T00:24:40.790Z,6.30
2023-02-04T00:27:08.712Z,6.30
2023-02-04T00:29:37.703Z,5.70
2023-02-04T00:32:05.819Z,5.13
2023-02-04T00:34:33.603Z,5.00
2023-02-04T00:37:01.292Z,6.13
2023-02-04T00:39:29.109Z,5.17
2023-02-04T00:41:56.774Z,4.77
2023-02-04T00:44:24.420Z,5.73
2023-02-04T00:46:53.511Z,5.13
2023-02-04T00:49:21.714Z,4.63
2023-02-04T00:51:49.599Z,4.53
2023-02-04T00:54:17.283Z,4.67
2023-02-04T00:56:45.077Z,5.13
2023-02-04T00:59:12.733Z,4.47
2023-02-04T01:01:40.546Z,4.20
2023-02-04T01:04:09.556Z,5.27
2023-02-04T01:06:37.622Z,6.93
2023-02-04T01:09:06.364Z,6.97
2023-02-04T01:11:34.297Z,5.73
2023-02-04T01:14:01.972Z,6.10
2023-02-04T01:16:29.961Z,6.80
2023-02-04T01:18:57.726Z,6.47
2023-02-04T01:21:27.194Z,6.70
2023-02-04T01:23:54.879Z,6.83
2023-02-04T01:26:22.697Z,5.93
2023-02-04T01:28:50.748Z,6.47
2023-02-04T01:31:18.532Z,7.10
2023-02-04T01:33:46.283Z,7.60
2023-02-04T01:36:14.102Z,6.80
2023-02-04T01:38:43.137Z,6.37
2023-02-04T01:41:11.026Z,7.23
2023-02-04T01:43:38.730Z,6.70
2023-02-04T01:46:06.893Z,6.63
2023-02-04T01:48:35.040Z,6.73
2023-02-04T01:51:04.722Z,6.37
2023-02-04T01:53:32.744Z,6.30
2023-02-04T01:56:02.048Z,6.57
2023-02-04T01:58:35.632Z,6.87
2023-02-04T02:01:03.372Z,6.77
2023-02-04T02:03:31.033Z,6.97
2023-02-04T02:05:58.720Z,7.60
2023-02-04T02:08:26.383Z,7.50
2023-02-04T02:10:54.072Z,7.67
2023-02-04T02:13:23.223Z,7.57
2023-02-04T02:15:50.840Z,8.30
2023-02-04T02:18:18.510Z,8.07
2023-02-04T02:20:46.293Z,7.50
2023-02-04T02:23:17.216Z,7.37
2023-02-04T02:25:46.616Z,9.00
2023-02-04T02:28:15.172Z,8.07
2023-02-04T02:30:45.626Z,6.27
2023-02-04T02:33:14.922Z,6.77
2023-02-04T02:35:43.616Z,7.60
2023-02-04T02:38:11.360Z,6.67
2023-02-04T02:40:39.634Z,7.07
2023-02-04T02:43:12.398Z,6.87
2023-02-04T02:45:40.107Z,7.63
2023-02-04T02:48:08.388Z,7.30
2023-02-04T02:50:36.099Z,7.13
2023-02-04T02:53:04.291Z,7.47
2023-02-04T02:55:32.569Z,7.37
2023-02-04T02:58:00.311Z,7.53
2023-02-04T03:00:30.747Z,7.10
2023-02-04T03:03:01.554Z,6.57
2023-02-04T03:05:31.310Z,5.53
2023-02-04T03:07:58.997Z,6.83
2023-02-04T03:10:26.862Z,7.50
2023-02-04T03:12:54.788Z,6.47
2023-02-04T03:15:22.439Z,6.87
2023-02-04T03:17:56.549Z,7.20
2023-02-04T03:20:25.073Z,7.60
2023-02-04T03:22:52.927Z,6.73
2023-02-04T03:25:20.958Z,7.97
2023-02-04T03:27:48.633Z,7.97
2023-02-04T03:30:16.486Z,10.63
2023-02-04T03:32:44.174Z,13.00
2023-02-04T03:35:13.277Z,10.60
2023-02-04T03:37:41.164Z,9.67
2023-02-04T03:40:09.573Z,7.27
2023-02-04T03:42:37.361Z,8.77
2023-02-04T03:45:05.331Z,8.10
2023-02-04T03:47:33.050Z,6.77
2023-02-04T03:50:00.853Z,7.00
2023-02-04T03:52:29.891Z,7.07
2023-02-04T03:54:57.645Z,6.60
2023-02-04T03:57:25.365Z,6.47
2023-02-04T03:59:52.984Z,6.27
2023-02-04T04:02:20.696Z,4.93
2023-02-04T04:04:48.361Z,6.20
2023-02-04T04:07:16.017Z,6.00
2023-02-04T04:09:45.061Z,6.07
2023-02-04T04:12:12.680Z,6.37
2023-02-04T04:14:40.343Z,5.57
2023-02-04T04:17:08.217Z,6.13
2023-02-04T04:19:35.852Z,6.80
2023-02-04T04:22:03.468Z,6.10
2023-02-04T04:24:31.128Z,6.40
2023-02-04T04:27:00.150Z,6.70
2023-02-04T04:29:27.780Z,7.80
2023-02-04T04:31:55.535Z,7.30
2023-02-04T04:34:23.203Z,7.17
2023-02-04T04:36:50.816Z,6.80
2023-02-04T04:39:18.535Z,6.37
2023-02-04T04:41:46.170Z,6.63
2023-02-04T04:44:15.202Z,6.00
2023-02-04T04:46:42.921Z,7.07
2023-02-04T04:49:10.638Z,6.30
2023-02-04T04:51:38.274Z,6.53
2023-02-04T04:54:05.977Z,5.90
2023-02-04T04:56:35.532Z,6.60
2023-02-04T04:59:03.424Z,6.67
2023-02-04T05:01:32.422Z,6.60
2023-02-04T05:04:00.150Z,7.43
2023-02-04T05:06:27.846Z,7.33
2023-02-04T05:08:55.781Z,7.07
2023-02-04T05:11:23.508Z,7.47
2023-02-04T05:13:51.177Z,7.23
2023-02-04T05:16:18.849Z,7.13
2023-02-04T05:18:47.951Z,7.70
2023-02-04T05:21:15.630Z,7.07
2023-02-04T05:23:43.245Z,8.00
2023-02-04T05:26:13.598Z,6.10
2023-02-04T05:28:42.968Z,5.60
2023-02-04T05:31:10.691Z,6.67
2023-02-04T05:33:38.420Z,6.23
2023-02-04T05:36:07.804Z,4.87
2023-02-04T05:38:35.480Z,4.37
2023-02-04T05:41:03.239Z,1.77
2023-02-04T05:43:30.882Z,1.80
2023-02-04T05:45:59.195Z,0.90
2023-02-04T05:48:27.039Z,0.80
2023-02-04T05:50:54.662Z,1.40
2023-02-04T05:53:25.314Z,1.07
2023-02-04T05:55:53.847Z,0.87
2023-02-04T05:58:21.523Z,1.03
2023-02-04T06:00:49.195Z,1.20
2023-02-04T06:03:19.651Z,1.27
2023-02-04T06:05:47.372Z,1.13
2023-02-04T06:08:15.894Z,1.23
2023-02-04T06:10:44.924Z,1.37
2023-02-04T06:13:12.586Z,1.10
2023-02-04T06:15:40.254Z,0.80
2023-02-04T06:18:08.159Z,1.60
2023-02-04T06:20:35.750Z,1.00
2023-02-04T06:23:03.473Z,1.30
2023-02-04T06:25:31.171Z,1.10
2023-02-04T06:28:00.266Z,0.93
2023-02-04T06:30:27.932Z,1.30
2023-02-04T06:32:55.639Z,1.97
2023-02-04T06:35:23.261Z,1.60
2023-02-04T06:37:50.924Z,1.60
2023-02-04T06:40:18.847Z,1.30
2023-02-04T06:42:46.474Z,1.27
2023-02-04T06:45:15.582Z,1.10
2023-02-04T06:47:43.293Z,1.37
2023-02-04T06:50:12.264Z,2.40
2023-02-04T06:52:40.064Z,1.50
2023-02-04T06:55:07.848Z,1.20
2023-02-04T06:57:35.458Z,1.87
2023-02-04T07:00:03.088Z,1.43
2023-02-04T07:02:32.241Z,1.50
2023-02-04T07:05:00.825Z,1.33
2023-02-04T07:07:28.614Z,1.37
2023-02-04T07:09:56.299Z,1.40
2023-02-04T07:12:24.010Z,1.90
2023-02-04T07:14:51.656Z,1.77
2023-02-04T07:17:19.323Z,1.70
2023-02-04T07:19:48.367Z,1.90
2023-02-04T07:22:16.039Z,1.27
2023-02-04T07:24:43.775Z,1.20
2023-02-04T07:27:11.468Z,1.70
2023-02-04T07:29:39.115Z,1.60
2023-02-04T07:32:07.008Z,1.37
2023-02-04T07:34:34.918Z,2.30
2023-02-04T07:37:04.008Z,1.23
2023-02-04T07:39:31.789Z,1.80
2023-02-04T07:41:59.450Z,1.43
2023-02-04T07:44:27.062Z,2.13
2023-02-04T07:46:54.874Z,1.63
2023-02-04T07:49:22.612Z,1.80
2023-02-04T07:51:50.239Z,1.63
2023-02-04T07:54:19.269Z,1.40
2023-02-04T07:56:46.870Z,1.60
2023-02-04T07:59:14.500Z,1.90
2023-02-04T08:01:42.178Z,1.37
2023-02-04T08:04:09.804Z,2.10
2023-02-04T08:06:37.475Z,1.80
2023-02-04T08:09:05.662Z,0.97
2023-02-04T08:11:34.652Z,2.37
2023-02-04T08:14:02.303Z,1.33
2023-02-04T08:16:29.993Z,1.60
2023-02-04T08:18:57.617Z,1.67
2023-02-04T08:21:25.338Z,1.77
2023-02-04T08:23:53.134Z,1.70
2023-02-04T08:26:20.839Z,1.50
2023-02-04T08:28:49.898Z,1.50
2023-02-04T08:31:17.657Z,1.67
2023-02-04T08:33:45.406Z,1.70
2023-02-04T08:36:13.106Z,1.43
2023-02-04T08:38:41.553Z,2.03
2023-02-04T08:41:09.450Z,1.70
2023-02-04T08:43:37.233Z,1.73
2023-02-04T08:46:06.327Z,1.50
2023-02-04T08:48:34.096Z,1.50
2023-02-04T08:51:01.870Z,2.00
2023-02-04T08:53:29.564Z,2.27
2023-02-04T08:55:57.217Z,1.70
2023-02-04T08:58:25.010Z,1.70
2023-02-04T09:00:52.676Z,2.30
2023-02-04T09:03:21.720Z,1.70
2023-02-04T09:05:49.386Z,1.97
2023-02-04T09:08:17.008Z,1.40
2023-02-04T09:10:44.612Z,1.40
2023-02-04T09:13:14.655Z,1.70
2023-02-04T09:15:42.343Z,1.57
2023-02-04T09:18:16.461Z,1.90
2023-02-04T09:20:45.665Z,1.33
2023-02-04T09:23:13.670Z,1.70
2023-02-04T09:25:44.214Z,1.83
2023-02-04T09:28:12.796Z,1.73
2023-02-04T09:30:40.989Z,2.00
2023-02-04T09:33:08.764Z,1.83
2023-02-04T09:35:36.567Z,1.60
2023-02-04T09:38:06.204Z,2.13
2023-02-04T09:40:36.162Z,2.33
2023-02-04T09:43:04.670Z,1.53
2023-02-04T09:45:34.900Z,1.33
2023-02-04T09:48:04.117Z,1.70
2023-02-04T09:50:33.281Z,1.13
2023-02-04T09:53:02.913Z,1.10
2023-02-04T09:55:33.156Z,1.50
2023-02-04T09:58:01.613Z,1.40
2023-02-04T10:00:30.916Z,1.70
2023-02-04T10:03:00.178Z,1.43
2023-02-04T10:05:30.099Z,1.50
2023-02-04T10:07:58.271Z,1.50
2023-02-04T10:10:27.359Z,1.83
2023-02-04T10:12:57.310Z,2.20
2023-02-04T10:15:25.239Z,1.50
2023-02-04T10:17:54.404Z,2.47
2023-02-04T10:20:23.155Z,1.47
2023-02-04T10:22:52.300Z,1.70
2023-02-04T10:25:20.911Z,1.60
2023-02-04T10:27:49.495Z,1.73
2023-02-04T10:30:23.038Z,1.50
2023-02-04T10:32:51.373Z,1.20
2023-02-04T10:35:19.866Z,1.57
2023-02-04T10:37:47.896Z,1.93
2023-02-04T10:40:27.545Z,1.30
2023-02-04T10:42:55.451Z,1.20
2023-02-04T10:45:25.386Z,0.73
2023-02-04T10:47:53.541Z,2.20
2023-02-04T10:50:22.020Z,2.50
2023-02-04T10:52:50.975Z,2.97
2023-02-04T10:55:18.715Z,1.87
2023-02-04T10:57:47.835Z,1.27
2023-02-04T11:00:19.458Z,1.00
2023-02-04T11:02:54.492Z,1.27
2023-02-04T11:05:23.532Z,1.27
2023-02-04T11:07:51.629Z,1.40
2023-02-04T11:10:20.496Z,1.40
2023-02-04T11:12:49.415Z,1.30
2023-02-04T11:15:35.666Z,1.20
2023-02-04T11:18:06.699Z,1.00
2023-02-04T11:20:36.326Z,1.40
2023-02-04T11:23:15.251Z,1.50
2023-02-04T11:25:43.038Z,1.90
2023-02-04T11:28:16.822Z,1.30
2023-02-04T11:30:44.745Z,1.50
2023-02-04T11:33:25.376Z,1.13
2023-02-04T11:36:01.978Z,1.80
2023-02-04T11:38:31.783Z,1.57
2023-02-04T11:41:00.571Z,1.37
2023-02-04T11:43:30.511Z,1.10
2023-02-04T11:46:02.693Z,1.00
2023-02-04T11:48:33.312Z,0.90
2023-02-04T11:51:01.852Z,1.50
2023-02-04T11:53:30.770Z,1.20
2023-02-04T11:55:58.564Z,0.80
2023-02-04T11:58:26.389Z,2.70
2023-02-04T12:00:54.376Z,1.80
2023-02-04T12:03:23.715Z,2.17
2023-02-04T12:05:54.988Z,1.10
2023-02-04T12:08:33.299Z,1.40
2023-02-04T12:11:02.840Z,1.83
2023-02-04T12:13:31.115Z,1.27
2023-02-04T12:16:02.967Z,1.00
2023-02-04T12:18:30.977Z,1.07
2023-02-04T12:21:00.386Z,1.20
2023-02-04T12:23:29.532Z,0.70
2023-02-04T12:25:57.562Z,1.27
2023-02-04T12:28:25.201Z,0.93
2023-02-04T12:30:53.053Z,1.50
2023-02-04T12:33:20.792Z,1.30
2023-02-04T12:35:48.479Z,0.90
2023-02-04T12:38:19.191Z,1.43
2023-02-04T12:40:47.505Z,1.37
2023-02-04T12:43:15.141Z,0.80
2023-02-04T12:45:46.455Z,1.33
2023-02-04T12:48:15.185Z,1.27
2023-02-04T12:50:43.081Z,1.30
2023-02-04T12:53:10.745Z,1.90
2023-02-04T12:55:39.810Z,1.80
2023-02-04T12:58:07.450Z,1.80
2023-02-04T13:00:35.277Z,2.10
2023-02-04T13:03:03.109Z,1.80
2023-02-04T13:05:31.134Z,1.43
2023-02-04T13:07:59.088Z,1.17
2023-02-04T13:10:26.746Z,1.10
2023-02-04T13:12:55.734Z,1.30
2023-02-04T13:15:23.549Z,2.00
2023-02-04T13:17:51.225Z,1.30
2023-02-04T13:20:19.194Z,1.03
2023-02-04T13:22:46.924Z,1.07
2023-02-04T13:25:16.181Z,1.47
2023-02-04T13:27:43.830Z,0.70
2023-02-04T13:30:16.323Z,0.80
2023-02-04T13:32:43.974Z,0.50
2023-02-04T13:35:11.601Z,0.50
2023-02-04T13:37:39.367Z,0.50
2023-02-04T13:40:07.867Z,0.60
2023-02-04T13:42:35.571Z,0.80
2023-02-04T13:45:03.417Z,1.10
2023-02-04T13:47:33.257Z,0.70
2023-02-04T13:50:00.898Z,1.00
2023-02-04T13:52:28.570Z,1.00
2023-02-04T13:54:56.687Z,0.60
2023-02-04T13:57:24.385Z,0.87
2023-02-04T13:59:52.050Z,0.90
2023-02-04T14:02:21.295Z,0.90
2023-02-04T14:04:50.395Z,0.93
2023-02-04T14:07:18.322Z,0.93
2023-02-04T14:09:48.432Z,1.30
2023-02-04T14:12:16.092Z,1.50
2023-02-04T14:14:43.926Z,1.20
2023-02-04T14:17:11.609Z,1.30
2023-02-04T14:19:39.343Z,1.13
2023-02-04T14:22:12.932Z,1.23
2023-02-04T14:24:42.763Z,1.20
2023-02-04T14:27:11.053Z,1.20
2023-02-04T14:29:38.839Z,1.97
2023-02-04T14:32:06.488Z,1.80
2023-02-04T14:34:34.104Z,1.50
2023-02-04T14:37:01.939Z,0.70
2023-02-04T14:39:30.982Z,1.20
2023-02-04T14:41:58.588Z,1.27
2023-02-04T14:44:26.286Z,0.90
2023-02-04T14:46:54.196Z,1.00
2023-02-04T14:49:21.803Z,1.30
2023-02-04T14:51:49.508Z,1.53
2023-02-04T14:54:17.397Z,1.30
2023-02-04T14:56:47.893Z,1.60
2023-02-04T14:59:15.633Z,1.33
2023-02-04T15:01:45.342Z,1.10
2023-02-04T15:04:13.004Z,1.80
2023-02-04T15:06:40.694Z,1.17
2023-02-04T15:09:08.318Z,1.40
2023-02-04T15:11:35.988Z,1.50
2023-02-04T15:14:05.420Z,1.47
2023-02-04T15:16:33.140Z,1.07
2023-02-04T15:19:00.788Z,1.30
2023-02-04T15:21:28.537Z,1.83
2023-02-04T15:23:56.169Z,1.37
2023-02-04T15:26:25.065Z,1.63
2023-02-04T15:28:52.814Z,1.80
2023-02-04T15:31:39.376Z,1.47
2023-02-04T15:34:25.690Z,1.43
2023-02-04T15:36:53.343Z,1.67
2023-02-04T15:39:20.991Z,1.20
2023-02-04T15:41:48.746Z,1.63
2023-02-04T15:44:16.397Z,1.20
2023-02-04T15:46:45.562Z,2.40
2023-02-04T15:49:13.256Z,2.00
2023-02-04T15:51:40.864Z,1.60
2023-02-04T15:54:08.528Z,1.40
2023-02-04T15:56:36.188Z,1.40
2023-02-04T15:59:03.825Z,1.47
2023-02-04T16:01:31.567Z,1.30
2023-02-04T16:04:01.126Z,1.30
2023-02-04T16:06:28.831Z,1.07
2023-02-04T16:08:56.581Z,1.43
2023-02-04T16:11:24.261Z,1.60
2023-02-04T16:13:51.924Z,1.33
2023-02-04T16:16:20.448Z,1.87
2023-02-04T16:18:48.111Z,3.13
2023-02-04T16:21:17.151Z,2.10
2023-02-04T16:23:44.858Z,2.27
2023-02-04T16:26:12.523Z,1.97
2023-02-04T16:28:40.192Z,2.03
2023-02-04T16:31:09.752Z,1.97
2023-02-04T16:33:37.499Z,1.93
2023-02-04T16:36:06.019Z,2.53
2023-02-04T16:38:36.771Z,1.50
2023-02-04T16:41:04.783Z,1.93
2023-02-04T16:43:32.745Z,1.77
2023-02-04T16:46:00.519Z,2.50
2023-02-04T16:48:28.722Z,2.40
2023-02-04T16:50:56.498Z,2.63
2023-02-04T16:53:24.143Z,2.20
2023-02-04T16:55:53.201Z,2.17
2023-02-04T16:58:20.944Z,2.70
2023-02-04T17:00:50.242Z,3.10
2023-02-04T17:03:17.960Z,2.50
2023-02-04T17:05:45.623Z,2.70
2023-02-04T17:08:15.178Z,2.70
2023-02-04T17:11:00.738Z,3.60
2023-02-04T17:13:29.746Z,2.70
2023-02-04T17:16:01.305Z,6.10
2023-02-04T17:18:29.938Z,5.77
2023-02-04T17:20:58.040Z,3.60
2023-02-04T17:23:25.736Z,3.33
2023-02-04T17:25:53.636Z,2.50
2023-02-04T17:28:21.376Z,2.60
2023-02-04T17:30:50.527Z,2.70
2023-02-04T17:33:18.254Z,2.37
2023-02-04T17:35:45.962Z,3.77
2023-02-04T17:38:13.709Z,2.20
2023-02-04T17:40:42.649Z,2.50
2023-02-04T17:43:10.444Z,1.97
2023-02-04T17:45:38.352Z,3.00
2023-02-04T17:48:07.969Z,2.70
2023-02-04T17:53:10.132Z,2.33
2023-02-04T17:55:39.660Z,2.60
2023-02-04T17:58:14.065Z,2.70
2023-02-04T18:00:42.545Z,2.90
2023-02-04T18:03:13.651Z,2.20
2023-02-04T18:05:44.391Z,2.30
2023-02-04T18:08:14.206Z,2.00
2023-02-04T18:10:43.151Z,2.70
2023-02-04T18:13:15.930Z,2.13
2023-02-04T18:15:45.057Z,2.17
2023-02-04T18:18:19.984Z,1.90
2023-02-04T18:20:48.089Z,1.30
2023-02-04T18:23:16.875Z,1.67
2023-02-04T18:25:45.119Z,1.73
2023-02-04T18:28:17.097Z,1.10
2023-02-04T18:30:45.548Z,1.60
2023-02-04T18:33:16.531Z,1.40
2023-02-04T18:35:47.193Z,1.53
2023-02-04T18:38:25.341Z,1.93
2023-02-04T18:40:56.736Z,2.27
2023-02-04T18:43:25.626Z,2.00
2023-02-04T18:45:53.652Z,1.90
2023-02-04T18:48:39.889Z,3.00
2023-02-04T18:51:17.968Z,2.10
2023-02-04T18:53:45.811Z,1.90
2023-02-04T18:56:14.040Z,2.50
2023-02-04T18:58:42.313Z,2.00
2023-02-04T19:01:17.032Z,2.00
2023-02-04T19:03:48.969Z,2.10
2023-02-04T19:06:27.185Z,1.83
2023-02-04T19:08:55.552Z,2.00
2023-02-04T19:11:35.145Z,1.70
2023-02-04T19:14:03.539Z,1.80
2023-02-04T19:16:34.672Z,2.90
2023-02-04T19:19:03.934Z,2.10
2023-02-04T19:21:35.216Z,2.00
2023-02-04T19:24:09.322Z,2.20
2023-02-04T19:26:39.801Z,1.47
2023-02-04T19:29:34.432Z,2.03
2023-02-04T19:32:09.089Z,2.47
2023-02-04T19:34:39.450Z,1.60
2023-02-04T19:37:16.753Z,1.37
2023-02-04T19:39:45.260Z,1.47
2023-02-04T19:42:29.096Z,1.20
2023-02-04T19:44:59.565Z,1.33
2023-02-04T19:47:29.205Z,1.60
2023-02-04T19:50:02.030Z,1.70
2023-02-04T19:52:38.412Z,0.80
2023-02-04T19:55:25.113Z,1.87
2023-02-04T19:57:54.189Z,1.10
2023-02-04T20:00:37.482Z,1.87
2023-02-04T20:03:12.707Z,1.17
2023-02-04T20:05:40.449Z,1.03
2023-02-04T20:08:24.599Z,1.47
2023-02-04T20:10:52.305Z,1.27
2023-02-04T20:13:20.926Z,1.03
2023-02-04T20:15:48.625Z,0.97
2023-02-04T20:18:20.049Z,1.20
2023-02-04T20:20:48.193Z,1.30
2023-02-04T20:23:24.163Z,0.97
2023-02-04T20:25:51.823Z,0.73
2023-02-04T20:28:31.069Z,0.60
2023-02-04T20:30:59.792Z,0.70
2023-02-04T20:33:29.236Z,1.00
2023-02-04T20:36:20.682Z,1.00
2023-02-04T20:38:49.778Z,1.40
2023-02-04T20:41:19.553Z,1.50
2023-02-04T20:43:47.492Z,1.40
2023-02-04T20:46:19.236Z,1.33
2023-02-04T20:48:48.788Z,1.57
2023-02-04T20:51:21.593Z,1.27
2023-02-04T20:53:52.660Z,0.67
2023-02-04T20:56:24.213Z,0.80
2023-02-04T20:58:52.575Z,0.97
2023-02-04T21:01:21.592Z,0.93
2023-02-04T21:03:50.912Z,1.27
2023-02-04T21:06:22.786Z,0.90
2023-02-04T21:08:52.733Z,1.00
2023-02-04T21:11:20.405Z,0.70
2023-02-04T21:13:48.273Z,0.93
2023-02-04T21:16:15.980Z,1.00
2023-02-04T21:18:43.669Z,0.90
2023-02-04T21:21:11.609Z,0.93
2023-02-04T21:23:39.315Z,1.07
2023-02-04T21:26:08.357Z,0.97
2023-02-04T21:28:36.080Z,1.30
2023-02-04T21:31:04.202Z,0.90
2023-02-04T21:33:31.881Z,1.30
2023-02-04T21:35:59.632Z,1.20
2023-02-04T21:38:27.331Z,1.07
2023-02-04T21:40:54.992Z,1.37
2023-02-04T21:43:24.034Z,1.40
2023-02-04T21:45:51.663Z,0.80
2023-02-04T21:48:20.036Z,0.90
2023-02-04T21:50:47.837Z,1.00
2023-02-04T21:53:15.459Z,0.90
2023-02-04T21:55:43.070Z,1.40
2023-02-04T21:58:10.754Z,1.30
2023-02-04T22:00:39.738Z,1.53
2023-02-04T22:03:10.446Z,1.37
2023-02-04T22:05:38.128Z,1.40
2023-02-04T22:08:05.753Z,0.80
2023-02-04T22:10:33.494Z,1.10
2023-02-04T22:13:18.510Z,1.37
2023-02-04T22:15:48.120Z,1.27
2023-02-04T22:18:15.850Z,1.43
2023-02-04T22:20:43.469Z,1.27
2023-02-04T22:23:11.177Z,0.90
2023-02-04T22:25:38.808Z,1.13
2023-02-04T22:28:06.629Z,1.10
2023-02-04T22:30:34.322Z,1.40
2023-02-04T22:33:03.313Z,1.30
2023-02-04T22:35:35.300Z,1.27
2023-02-04T22:38:03.410Z,1.50
2023-02-04T22:40:31.153Z,1.30
2023-02-04T22:42:58.858Z,1.03
2023-02-04T22:45:26.519Z,1.20
2023-02-04T22:47:54.831Z,1.33
2023-02-04T22:50:23.908Z,1.23
2023-02-04T22:52:51.571Z,1.13
2023-02-04T22:55:19.220Z,1.00
2023-02-04T22:57:46.859Z,0.93
2023-02-04T23:00:15.137Z,1.30
2023-02-04T23:02:42.821Z,1.23
2023-02-04T23:05:10.514Z,1.53
2023-02-04T23:07:39.515Z,1.53
2023-02-04T23:10:07.661Z,1.30
2023-02-04T23:12:35.338Z,1.43
2023-02-04T23:15:02.971Z,1.90
2023-02-04T23:17:30.697Z,1.53
2023-02-04T23:19:58.414Z,0.90
2023-02-04T23:22:26.086Z,2.20
2023-02-04T23:24:55.154Z,1.70
2023-02-04T23:27:22.828Z,2.10
2023-02-04T23:29:50.533Z,1.83
2023-02-04T23:32:18.161Z,1.60
2023-02-04T23:34:45.803Z,1.50
2023-02-04T23:37:13.567Z,1.60
2023-02-04T23:39:41.208Z,1.70
2023-02-04T23:42:10.247Z,1.57
2023-02-04T23:44:37.977Z,1.77
2023-02-04T23:47:06.727Z,1.80
2023-02-04T23:49:34.354Z,1.60
2023-02-04T23:52:02.414Z,1.80
2023-02-04T23:54:30.147Z,1.47
2023-02-04T23:56:57.820Z,2.17
2023-02-04T23:59:26.930Z,2.17
